createdAt,value
2023-07-20T00:02:49.338Z,77.83
2023-07-20T00:08:14.702Z,76.92
2023-07-20T00:13:07.087Z,76.88
2023-07-20T00:18:07.265Z,77.73
2023-07-20T00:23:07.045Z,78.23
2023-07-20T00:28:06.990Z,77.62
2023-07-20T00:33:06.898Z,76.38
2023-07-20T00:38:06.812Z,76.98
2023-07-20T00:43:06.730Z,76.04
2023-07-20T00:48:06.850Z,77.55
2023-07-20T00:53:06.647Z,77.35
2023-07-20T00:58:06.590Z,77.82
2023-07-20T01:03:06.624Z,78.22
2023-07-20T01:08:06.444Z,79.73
2023-07-20T01:13:06.336Z,81.02
2023-07-20T01:18:06.267Z,84.69
2023-07-20T01:23:06.244Z,85.80
2023-07-20T01:28:06.142Z,85.90
2023-07-20T01:33:06.082Z,85.19
2023-07-20T01:38:06.029Z,84.95
2023-07-20T01:43:05.881Z,84.05
2023-07-20T01:48:05.861Z,84.75
2023-07-20T01:53:05.779Z,85.46
2023-07-20T01:58:05.728Z,85.36
2023-07-20T02:03:05.775Z,85.80
2023-07-20T02:08:05.688Z,86.10
2023-07-20T02:13:05.523Z,86.30
2023-07-20T02:18:05.559Z,85.40
2023-07-20T02:23:05.475Z,84.85
2023-07-20T02:28:05.390Z,84.65
2023-07-20T02:33:05.268Z,84.75
2023-07-20T02:38:05.195Z,85.36
2023-07-20T02:43:05.103Z,85.80
2023-07-20T02:48:05.135Z,86.30
2023-07-20T02:53:04.939Z,86.75
2023-07-20T02:58:04.904Z,86.75
2023-07-20T03:03:04.884Z,86.55
2023-07-20T03:08:04.750Z,86.35
2023-07-20T03:13:04.664Z,86.35
2023-07-20T03:18:04.664Z,86.85
2023-07-20T03:23:04.548Z,87.30
2023-07-20T03:28:04.564Z,87.19
2023-07-20T03:33:04.526Z,87.19
2023-07-20T03:38:04.446Z,87.30
2023-07-20T03:43:04.382Z,87.34
2023-07-20T03:48:04.365Z,87.74
2023-07-20T03:53:05.930Z,87.88
2023-07-20T03:58:04.122Z,87.88
2023-07-20T04:03:04.264Z,87.48
2023-07-20T04:08:04.064Z,87.99
2023-07-20T04:13:03.848Z,87.88
2023-07-20T04:18:18.460Z,88.33
2023-07-20T04:23:10.931Z,87.99
2023-07-20T04:28:11.312Z,88.43
2023-07-20T04:33:10.800Z,88.53
2023-07-20T04:38:10.765Z,88.53
2023-07-20T04:43:10.676Z,89.00
2023-07-20T04:48:10.602Z,88.59
2023-07-20T04:53:10.525Z,88.85
2023-07-20T04:58:10.414Z,87.90
2023-07-20T05:03:10.442Z,87.70
2023-07-20T05:08:10.233Z,88.47
2023-07-20T05:13:10.180Z,87.86
2023-07-20T05:18:10.240Z,86.85
2023-07-20T05:23:10.073Z,87.56
2023-07-20T05:28:09.956Z,88.23
2023-07-20T05:33:09.942Z,85.76
2023-07-20T05:38:09.853Z,82.70
2023-07-20T05:43:09.807Z,80.54
2023-07-20T05:48:09.737Z,78.59
2023-07-20T05:53:09.685Z,78.99
2023-07-20T05:58:09.557Z,79.80
2023-07-20T06:03:09.582Z,79.66
2023-07-20T06:08:09.426Z,77.75
2023-07-20T06:13:09.423Z,78.35
2023-07-20T06:18:09.373Z,76.70
2023-07-20T06:23:09.314Z,74.01
2023-07-20T06:28:09.157Z,74.71
2023-07-20T06:33:09.397Z,72.03
2023-07-20T06:48:08.889Z,73.88
2023-07-20T06:53:08.862Z,74.58
2023-07-20T06:58:08.774Z,71.59
2023-07-20T07:03:08.815Z,67.89
2023-07-20T07:08:08.664Z,64.20
2023-07-20T07:13:08.601Z,65.43
2023-07-20T07:18:08.533Z,64.53
2023-07-20T07:23:08.417Z,64.13
2023-07-20T07:28:08.368Z,66.46
2023-07-20T07:33:08.386Z,63.96
2023-07-20T07:38:19.322Z,58.26
2023-07-20T07:43:09.223Z,57.01
2023-07-20T07:48:08.234Z,56.78
2023-07-20T07:53:08.149Z,53.41
2023-07-20T07:58:07.972Z,50.48
2023-07-20T08:03:07.979Z,57.60
2023-07-20T08:08:07.842Z,62.89
2023-07-20T08:13:07.805Z,67.19
2023-07-20T08:18:07.817Z,67.69
2023-07-20T08:23:07.660Z,55.99
2023-07-20T08:28:07.595Z,49.05
2023-07-20T08:33:07.579Z,53.88
2023-07-20T08:38:07.427Z,58.54
2023-07-20T08:43:07.425Z,57.24
2023-07-20T08:48:07.300Z,60.36
2023-07-20T08:53:07.292Z,60.75
2023-07-20T08:58:07.294Z,52.71
2023-07-20T09:03:07.338Z,49.66
2023-07-20T09:08:07.022Z,46.04
2023-07-20T09:13:08.680Z,47.19
2023-07-20T09:18:06.917Z,45.12
2023-07-20T09:23:07.403Z,42.30
2023-07-20T09:28:06.775Z,45.20
2023-07-20T09:58:06.391Z,46.15
2023-07-20T10:03:06.366Z,44.13
2023-07-20T10:13:06.171Z,48.90
2023-07-20T10:18:07.010Z,45.68
2023-07-20T10:23:06.034Z,40.58
2023-07-20T10:28:05.984Z,41.49
2023-07-20T10:33:05.975Z,40.82
2023-07-20T10:38:05.888Z,39.47
2023-07-20T10:43:05.790Z,38.89
2023-07-20T10:48:05.835Z,37.05
2023-07-20T10:53:06.575Z,38.36
2023-07-20T10:58:05.622Z,43.31
2023-07-20T11:03:05.635Z,40.09
2023-07-20T11:08:05.984Z,41.02
2023-07-20T11:13:05.445Z,36.82
2023-07-20T11:18:05.341Z,37.51
2023-07-20T11:23:05.276Z,39.62
2023-07-20T11:28:05.214Z,38.48
2023-07-20T11:33:05.132Z,40.29
2023-07-20T11:38:05.175Z,35.89
2023-07-20T11:48:04.970Z,42.98
2023-07-20T11:53:04.961Z,46.49
2023-07-20T11:58:04.883Z,46.93
2023-07-20T12:03:04.799Z,46.51
2023-07-20T12:08:04.839Z,45.89
2023-07-20T12:13:04.588Z,47.07
2023-07-20T12:18:04.635Z,49.66
2023-07-20T12:23:04.469Z,47.74
2023-07-20T12:28:04.488Z,48.89
2023-07-20T12:33:04.360Z,47.95
2023-07-20T12:38:04.277Z,46.19
2023-07-20T12:43:04.353Z,45.15
2023-07-20T12:48:04.164Z,45.79
2023-07-20T12:53:04.067Z,49.07
2023-07-20T12:58:03.986Z,47.80
2023-07-20T13:13:03.794Z,47.44
2023-07-20T13:18:03.781Z,47.14
2023-07-20T13:23:03.657Z,46.38
2023-07-20T13:28:03.666Z,45.27
2023-07-20T13:33:07.128Z,45.62
2023-07-20T13:38:03.485Z,46.47
2023-07-20T13:43:03.433Z,44.27
2023-07-20T13:48:06.641Z,44.74
2023-07-20T13:58:03.241Z,41.69
2023-07-20T14:08:03.055Z,45.26
2023-07-20T14:13:02.983Z,44.17
2023-07-20T14:18:02.951Z,47.14
2023-07-20T14:23:02.854Z,43.99
2023-07-20T14:28:02.817Z,44.04
2023-07-20T14:33:02.820Z,43.02
2023-07-20T14:38:02.721Z,42.64
2023-07-20T14:43:02.648Z,39.93
2023-07-20T14:48:02.621Z,41.73
2023-07-20T14:53:06.289Z,42.80
2023-07-20T14:58:02.407Z,43.28
2023-07-20T15:03:02.366Z,42.29
2023-07-20T15:08:02.257Z,43.44
2023-07-20T15:13:02.198Z,43.98
2023-07-20T15:18:02.237Z,46.78
2023-07-20T15:23:02.138Z,44.89
2023-07-20T15:28:02.020Z,44.85
2023-07-20T15:38:01.875Z,45.17
2023-07-20T15:43:01.775Z,46.68
2023-07-20T15:48:01.846Z,45.61
2023-07-20T15:53:01.673Z,46.68
2023-07-20T15:58:01.632Z,45.56
2023-07-20T16:03:01.618Z,47.35
2023-07-20T16:08:01.632Z,47.25
2023-07-20T16:13:01.627Z,47.77
2023-07-20T16:18:01.408Z,48.13
2023-07-20T16:23:01.270Z,46.27
2023-07-20T16:28:01.172Z,44.60
2023-07-20T16:33:03.016Z,46.79
2023-07-20T16:48:00.964Z,44.90
2023-07-20T16:53:00.889Z,45.62
2023-07-20T16:58:00.837Z,44.99
2023-07-20T17:03:00.820Z,45.49
2023-07-20T17:08:00.741Z,46.60
2023-07-20T17:13:00.612Z,48.19
2023-07-20T17:18:00.635Z,48.91
2023-07-20T17:23:00.599Z,48.04
2023-07-20T17:33:00.496Z,55.93
2023-07-20T17:48:00.267Z,51.79
2023-07-20T17:53:00.217Z,55.48
2023-07-20T17:57:59.969Z,52.42
2023-07-20T18:03:00.061Z,52.94
2023-07-20T18:07:59.885Z,54.83
2023-07-20T18:12:59.956Z,54.86
2023-07-20T18:17:59.765Z,53.47
2023-07-20T18:22:59.629Z,55.58
2023-07-20T18:27:59.613Z,58.01
2023-07-20T18:32:59.920Z,60.91
2023-07-20T18:37:59.518Z,60.93
2023-07-20T18:42:59.429Z,62.93
2023-07-20T18:47:59.367Z,61.57
2023-07-20T18:52:59.273Z,61.29
2023-07-20T18:57:59.207Z,63.32
2023-07-20T19:02:59.186Z,60.92
2023-07-20T19:07:59.088Z,61.42
2023-07-20T19:12:59.066Z,63.35
2023-07-20T19:17:58.947Z,62.75
2023-07-20T19:22:58.887Z,62.68
2023-07-20T19:27:58.780Z,64.69
2023-07-20T19:32:58.738Z,62.88
2023-07-20T19:37:58.668Z,62.81
2023-07-20T19:42:58.663Z,64.45
2023-07-20T19:47:58.656Z,64.54
2023-07-20T19:57:58.356Z,64.78
2023-07-20T20:07:58.361Z,65.31
2023-07-20T20:12:58.206Z,66.41
2023-07-20T20:17:58.187Z,67.25
2023-07-20T20:22:58.130Z,65.64
2023-07-20T20:27:57.990Z,64.24
2023-07-20T20:32:57.975Z,66.14
2023-07-20T20:37:57.871Z,67.28
2023-07-20T20:42:57.863Z,67.82
2023-07-20T20:47:57.746Z,67.21
2023-07-20T20:52:57.755Z,67.35
2023-07-20T20:57:57.713Z,68.65
2023-07-20T21:02:57.638Z,70.06
2023-07-20T21:07:58.991Z,67.88
2023-07-20T21:12:57.496Z,66.57
2023-07-20T21:17:57.337Z,67.07
2023-07-20T21:22:57.297Z,66.44
2023-07-20T21:27:57.187Z,67.94
2023-07-20T21:32:57.310Z,67.88
2023-07-20T21:37:57.065Z,68.78
2023-07-20T21:42:56.973Z,67.58
2023-07-20T21:47:57.036Z,68.11
2023-07-20T21:52:56.882Z,67.84
2023-07-20T21:57:56.814Z,68.95
2023-07-20T22:02:56.869Z,69.89
2023-07-20T22:07:56.632Z,70.09
2023-07-20T22:12:56.607Z,71.94
2023-07-20T22:17:56.509Z,72.85
2023-07-20T22:22:56.600Z,72.14
2023-07-20T22:27:56.368Z,73.65
2023-07-20T22:32:56.665Z,73.08
2023-07-20T22:37:56.221Z,74.16
2023-07-20T22:42:56.269Z,73.82
2023-07-20T22:47:56.134Z,74.90
2023-07-20T22:52:56.115Z,73.58
2023-07-20T22:57:56.003Z,73.49
2023-07-20T23:02:56.098Z,72.95
2023-07-20T23:07:55.992Z,72.34
2023-07-20T23:12:55.832Z,71.53
2023-07-20T23:17:55.692Z,71.73
2023-07-20T23:22:55.635Z,71.64
2023-07-20T23:27:55.605Z,71.73
2023-07-20T23:32:55.553Z,71.60
2023-07-20T23:37:55.421Z,72.81
2023-07-20T23:42:55.356Z,73.79
2023-07-20T23:47:55.345Z,74.93
2023-07-20T23:52:55.240Z,75.84
2023-07-20T23:57:55.190Z,75.74
